Time;durP1;ratioP1;P1;durP2;ratioP2;P2;SDS_P1;SDS_P2;PMS_P1;PMS_P2;Temp;Humidity;BMP_temperature;BMP_pressure;BME280_temperature;BME280_humidity;BME280_pressure;Samples;Min_cycle;Max_cycle;Signal;HPM_P1;HPM_P2
2022/04/12 00:01:33;;;;;;;8.45;4.53;;;12.50;42.10;;;;;;5065004;28;20519;-41
2022/04/12 00:04:01;;;;;;;9.60;5.47;;;12.50;42.10;;;;;;5083247;28;20058;-42
2022/04/12 00:06:29;;;;;;;11.02;4.32;;;12.50;42.10;;;;;;5082278;28;20090;-43
2022/04/12 00:08:58;;;;;;;8.57;5.30;;;12.50;42.00;;;;;;5083553;28;20511;-42
2022/04/12 00:11:25;;;;;;;8.98;4.80;;;12.50;42.00;;;;;;5081146;28;20048;-42
2022/04/12 00:13:53;;;;;;;11.70;4.85;;;12.50;41.90;;;;;;5083461;28;20056;-42
2022/04/12 00:16:21;;;;;;;9.15;4.68;;;12.50;41.90;;;;;;5081365;28;20487;-42
2022/04/12 00:19:02;;;;;;;7.63;4.63;;;12.50;42.00;;;;;;5084529;28;20411;-42
2022/04/12 00:21:34;;;;;;;10.25;4.38;;;12.60;42.10;;;;;;5082012;28;20576;-42
2022/04/12 00:24:04;;;;;;;10.15;4.65;;;12.60;42.10;;;;;;5082172;28;20059;-44
2022/04/12 00:26:32;;;;;;;8.35;4.95;;;12.60;42.10;;;;;;5078355;28;20055;-42
2022/04/12 00:29:00;;;;;;;8.52;4.75;;;12.60;42.00;;;;;;5082016;28;20051;-42
2022/04/12 00:31:30;;;;;;;8.20;4.65;;;12.60;42.00;;;;;;5080231;28;20397;-42
2022/04/12 00:33:58;;;;;;;8.23;4.63;;;12.60;42.00;;;;;;5082436;28;20419;-42
2022/04/12 00:36:26;;;;;;;11.32;4.38;;;12.60;42.00;;;;;;5079395;28;20060;-42
2022/04/12 00:38:53;;;;;;;8.52;4.47;;;12.60;42.10;;;;;;5082920;28;20051;-42
2022/04/12 00:41:22;;;;;;;9.38;4.72;;;12.60;42.00;;;;;;5078035;28;20479;-43
2022/04/12 00:43:50;;;;;;;9.45;5.13;;;12.60;42.00;;;;;;5080889;28;20048;-41
2022/04/12 00:46:17;;;;;;;9.77;4.70;;;12.60;41.90;;;;;;5079849;28;20051;-42
2022/04/12 00:48:44;;;;;;;11.85;5.15;;;12.60;42.00;;;;;;5081722;28;20350;-42
2022/04/12 00:51:14;;;;;;;8.85;4.65;;;12.60;42.00;;;;;;5078415;28;20055;-44
2022/04/12 00:53:41;;;;;;;7.72;4.50;;;12.60;42.00;;;;;;5079281;28;20056;-42
2022/04/12 00:56:09;;;;;;;10.15;4.72;;;12.60;42.10;;;;;;5080606;28;20048;-42
2022/04/12 00:58:40;;;;;;;9.18;4.22;;;12.60;42.10;;;;;;5077275;28;20063;-42
2022/04/12 01:01:07;;;;;;;9.52;4.60;;;12.60;42.10;;;;;;5080453;28;20055;-43
2022/04/12 01:03:35;;;;;;;9.73;4.88;;;12.60;42.10;;;;;;5079515;28;20400;-41
2022/04/12 01:06:03;;;;;;;7.57;3.72;;;12.60;42.10;;;;;;5078685;28;20047;-42
2022/04/12 01:08:31;;;;;;;6.97;4.50;;;12.50;42.10;;;;;;5078653;28;20052;-46
2022/04/12 01:11:04;;;;;;;8.57;5.13;;;12.50;42.10;;;;;;5078644;28;20423;-43
2022/04/12 01:13:31;;;;;;;8.00;4.50;;;12.50;42.30;;;;;;5080117;28;20052;-43
2022/04/12 01:16:00;;;;;;;8.82;4.57;;;12.50;42.30;;;;;;5079571;28;20510;-42
2022/04/12 01:18:28;;;;;;;6.53;4.20;;;12.50;42.10;;;;;;5079187;28;20051;-42
2022/04/12 01:20:56;;;;;;;8.35;4.57;;;12.50;42.20;;;;;;5080914;28;20059;-42
2022/04/12 01:23:28;;;;;;;12.80;4.80;;;12.50;42.30;;;;;;5077551;28;20059;-42
2022/04/12 01:25:57;;;;;;;7.38;4.88;;;12.50;42.30;;;;;;5079609;28;20070;-42
2022/04/12 01:28:24;;;;;;;9.20;5.30;;;12.50;42.30;;;;;;5081617;28;20052;-41
2022/04/12 01:30:54;;;;;;;6.90;4.25;;;12.50;42.30;;;;;;5077710;28;20867;-42
2022/04/12 01:33:21;;;;;;;7.82;4.72;;;12.50;42.50;;;;;;5079146;28;20067;-43
2022/04/12 01:35:49;;;;;;;8.65;5.20;;;12.40;42.50;;;;;;5079699;28;20052;-43
2022/04/12 01:38:16;;;;;;;6.78;4.63;;;12.40;42.40;;;;;;5073450;28;20044;-42
2022/04/12 01:40:44;;;;;;;10.93;5.10;;;12.40;42.50;;;;;;5080898;28;20146;-41
2022/04/12 01:43:14;;;;;;;8.75;4.68;;;12.40;42.40;;;;;;5081395;28;20056;-45
2022/04/12 01:45:41;;;;;;;7.30;4.50;;;12.40;42.30;;;;;;5080116;28;20048;-42
2022/04/12 01:48:09;;;;;;;9.18;4.78;;;12.40;42.30;;;;;;5081693;28;20056;-42
2022/04/12 01:50:36;;;;;;;8.98;4.50;;;12.40;42.40;;;;;;5081093;28;20059;-43
2022/04/12 01:53:04;;;;;;;9.38;5.20;;;12.40;42.30;;;;;;5080977;28;20063;-43
2022/04/12 01:55:32;;;;;;;9.02;4.50;;;12.50;42.30;;;;;;5078815;28;20056;-42
2022/04/12 01:57:59;;;;;;;7.82;4.93;;;12.40;42.30;;;;;;5080082;28;20056;-41
2022/04/12 02:00:28;;;;;;;8.98;5.13;;;12.50;42.40;;;;;;5080451;28;20064;-42
2022/04/12 02:02:56;;;;;;;7.38;4.45;;;12.50;42.50;;;;;;5081330;28;20060;-42
2022/04/12 02:05:24;;;;;;;7.88;4.65;;;12.50;42.40;;;;;;5080808;28;20419;-42
2022/04/12 02:07:52;;;;;;;9.02;4.85;;;12.50;42.40;;;;;;5081158;28;20060;-42
2022/04/12 02:10:21;;;;;;;9.18;4.65;;;12.50;42.40;;;;;;5081221;28;20055;-44
2022/04/12 02:12:49;;;;;;;9.30;4.50;;;12.50;42.30;;;;;;5079192;28;20048;-42
2022/04/12 02:15:16;;;;;;;10.18;4.47;;;12.50;42.30;;;;;;5079958;28;20441;-42
2022/04/12 02:17:45;;;;;;;10.02;5.00;;;12.50;42.30;;;;;;5079012;28;20056;-42
2022/04/12 02:20:12;;;;;;;8.52;4.38;;;12.50;42.30;;;;;;5081629;28;20056;-42
2022/04/12 02:22:40;;;;;;;11.85;5.32;;;12.60;42.30;;;;;;5079415;28;20062;-43
2022/04/12 02:25:08;;;;;;;11.20;4.78;;;12.50;42.30;;;;;;5081658;28;20060;-42
2022/04/12 02:27:36;;;;;;;7.93;4.45;;;12.60;42.30;;;;;;5078936;28;20067;-43
2022/04/12 02:30:04;;;;;;;11.55;4.70;;;12.60;42.30;;;;;;5082277;28;20052;-42
2022/04/12 02:32:32;;;;;;;10.95;5.05;;;12.60;42.60;;;;;;5078547;28;20052;-43
2022/04/12 02:35:01;;;;;;;10.50;5.20;;;12.60;42.10;;;;;;5079228;28;20064;-42
2022/04/12 02:37:29;;;;;;;8.85;4.50;;;12.60;42.20;;;;;;5078090;28;20400;-42
2022/04/12 02:39:56;;;;;;;9.32;4.90;;;12.60;42.20;;;;;;5079695;28;20056;-42
2022/04/12 02:42:24;;;;;;;10.27;4.80;;;12.60;42.30;;;;;;5076573;28;20059;-42
2022/04/12 02:44:51;;;;;;;9.60;4.05;;;12.60;42.20;;;;;;5080737;28;20059;-42
2022/04/12 02:47:19;;;;;;;7.70;4.10;;;12.60;42.20;;;;;;5079447;28;20408;-42
2022/04/12 02:49:46;;;;;;;12.13;4.85;;;12.60;42.20;;;;;;5080683;28;20503;-42
2022/04/12 02:52:15;;;;;;;10.85;5.07;;;12.60;42.30;;;;;;5081008;28;20519;-42
2022/04/12 02:54:43;;;;;;;6.68;3.80;;;12.60;42.30;;;;;;5079972;28;20052;-42
2022/04/12 02:57:11;;;;;;;7.30;3.95;;;12.60;42.20;;;;;;5079697;28;20066;-42
2022/04/12 02:59:38;;;;;;;10.10;4.25;;;12.70;42.30;;;;;;5081744;28;20051;-42
2022/04/12 03:02:06;;;;;;;6.15;4.20;;;12.60;42.20;;;;;;5080267;28;20059;-42
2022/04/12 03:04:34;;;;;;;8.57;4.13;;;12.70;42.20;;;;;;5084924;28;20059;-42
2022/04/12 03:07:01;;;;;;;6.80;4.40;;;12.60;42.20;;;;;;5082999;28;20067;-42
2022/04/12 03:09:31;;;;;;;8.57;4.53;;;12.70;42.20;;;;;;5084591;28;20067;-48
2022/04/12 03:11:58;;;;;;;7.35;3.85;;;12.70;42.20;;;;;;5083562;28;20055;-42
2022/04/12 03:14:26;;;;;;;9.80;4.40;;;12.70;42.30;;;;;;5085849;28;20055;-41
2022/04/12 03:16:53;;;;;;;6.30;4.22;;;12.60;42.20;;;;;;5081464;28;20503;-45
2022/04/12 03:19:21;;;;;;;6.82;3.75;;;12.70;42.30;;;;;;5084163;28;20052;-43
2022/04/12 03:21:48;;;;;;;6.88;3.95;;;12.70;42.30;;;;;;5082390;28;20055;-43
2022/04/12 03:24:16;;;;;;;6.78;3.70;;;12.70;42.30;;;;;;5083849;28;20063;-43
2022/04/12 03:26:44;;;;;;;7.82;4.32;;;12.70;42.30;;;;;;5083799;28;20396;-42
2022/04/12 03:29:12;;;;;;;5.82;3.85;;;12.70;42.30;;;;;;5085801;28;20063;-42
2022/04/12 03:31:39;;;;;;;7.25;3.80;;;12.70;42.40;;;;;;5080768;28;20047;-45
2022/04/12 03:34:07;;;;;;;5.35;3.50;;;12.70;42.40;;;;;;5085090;28;20052;-44
2022/04/12 03:36:34;;;;;;;7.47;3.60;;;12.70;42.40;;;;;;5079480;28;20495;-42
2022/04/12 03:39:04;;;;;;;7.63;3.90;;;12.70;42.30;;;;;;5083281;28;20444;-42
2022/04/12 03:41:32;;;;;;;8.90;4.30;;;12.70;42.40;;;;;;5080292;28;20052;-42
2022/04/12 03:44:01;;;;;;;7.65;3.63;;;12.70;42.50;;;;;;5084534;28;20056;-42
2022/04/12 03:46:28;;;;;;;6.38;3.35;;;12.70;42.50;;;;;;5081807;28;20503;-44
2022/04/12 03:48:56;;;;;;;9.18;3.65;;;12.70;42.50;;;;;;5083691;28;20052;-43
2022/04/12 03:51:23;;;;;;;6.78;3.70;;;12.60;42.50;;;;;;5082089;28;20059;-42
2022/04/12 03:53:51;;;;;;;5.82;3.50;;;12.60;42.50;;;;;;5084307;28;20439;-42
2022/04/12 03:56:19;;;;;;;7.68;3.47;;;12.60;42.60;;;;;;5081436;28;20797;-42
2022/04/12 03:58:46;;;;;;;7.63;3.47;;;12.60;42.60;;;;;;5084525;28;20062;-42
2022/04/12 04:01:15;;;;;;;6.88;3.47;;;12.60;42.70;;;;;;5080604;28;20048;-42
2022/04/12 04:03:43;;;;;;;6.75;3.45;;;12.50;42.80;;;;;;5084447;28;20052;-42
2022/04/12 04:06:11;;;;;;;4.25;2.78;;;12.50;42.70;;;;;;5082122;28;20056;-41
2022/04/12 04:08:39;;;;;;;5.38;3.55;;;12.50;42.80;;;;;;5081255;28;20063;-43
2022/04/12 04:11:06;;;;;;;5.80;3.03;;;12.50;42.80;;;;;;5081157;28;20051;-42
2022/04/12 04:13:36;;;;;;;6.90;3.35;;;12.40;42.80;;;;;;5080534;28;20423;-42
2022/04/12 04:16:04;;;;;;;5.85;3.05;;;12.50;42.80;;;;;;5076974;28;20057;-42
2022/04/12 04:18:33;;;;;;;6.85;3.55;;;12.40;43.00;;;;;;5074040;28;20044;-42
2022/04/12 04:21:00;;;;;;;6.10;3.38;;;12.40;43.00;;;;;;5077471;28;20070;-44
2022/04/12 04:23:28;;;;;;;8.80;3.42;;;12.40;43.10;;;;;;5078564;28;20048;-43
2022/04/12 04:25:56;;;;;;;9.95;4.43;;;12.30;43.10;;;;;;5083686;28;20435;-43
2022/04/12 04:28:26;;;;;;;5.90;3.10;;;12.30;43.10;;;;;;5079802;28;20051;-42
2022/04/12 04:30:54;;;;;;;8.30;4.07;;;12.30;43.20;;;;;;5082799;28;21270;-42
2022/04/12 04:33:21;;;;;;;8.32;3.75;;;12.30;43.10;;;;;;5080294;28;20078;-44
2022/04/12 04:35:51;;;;;;;6.45;3.28;;;12.30;43.10;;;;;;5080313;28;20515;-43
2022/04/12 04:38:18;;;;;;;5.40;3.60;;;12.30;43.10;;;;;;5079764;28;20043;-42
2022/04/12 04:40:46;;;;;;;9.48;4.05;;;12.40;43.10;;;;;;5081062;28;20052;-41
2022/04/12 04:43:15;;;;;;;8.32;4.20;;;12.30;43.00;;;;;;5082388;28;20048;-45
2022/04/12 04:45:43;;;;;;;15.20;8.05;;;12.30;43.10;;;;;;5084283;28;20056;-43
2022/04/12 04:48:11;;;;;;;9.10;5.05;;;12.30;43.10;;;;;;5082050;28;20059;-45
2022/04/12 04:50:39;;;;;;;8.88;4.35;;;12.30;43.60;;;;;;5081398;28;20059;-42
2022/04/12 04:53:10;;;;;;;7.60;4.00;;;12.30;43.10;;;;;;5081869;28;20060;-42
2022/04/12 04:55:42;;;;;;;11.07;4.18;;;12.20;43.00;;;;;;5077930;28;20056;-42
2022/04/12 04:58:10;;;;;;;7.40;3.90;;;12.30;43.00;;;;;;5079968;28;20056;-42
2022/04/12 05:00:38;;;;;;;9.02;4.68;;;12.30;43.00;;;;;;5080828;28;20431;-42
2022/04/12 05:03:06;;;;;;;8.10;4.45;;;12.30;43.00;;;;;;5078548;28;20052;-41
2022/04/12 05:05:33;;;;;;;8.70;4.18;;;12.20;43.00;;;;;;5082216;28;20059;-43
2022/04/12 05:08:02;;;;;;;5.72;3.78;;;12.30;43.10;;;;;;5060135;28;20589;-42
2022/04/12 05:10:32;;;;;;;12.15;3.95;;;12.20;43.10;;;;;;5075905;28;20060;-42
2022/04/12 05:13:02;;;;;;;11.60;4.78;;;12.30;43.20;;;;;;5078454;28;20061;-42
2022/04/12 05:15:30;;;;;;;8.63;3.95;;;12.30;43.30;;;;;;5078146;28;20585;-41
2022/04/12 05:17:57;;;;;;;7.65;3.92;;;12.30;43.20;;;;;;5079421;28;20056;-41
2022/04/12 05:20:26;;;;;;;8.15;3.70;;;12.20;43.10;;;;;;5079077;28;20052;-44
2022/04/12 05:22:55;;;;;;;9.25;3.85;;;12.30;43.10;;;;;;5076869;28;20051;-42
2022/04/12 05:25:22;;;;;;;7.28;4.03;;;12.20;43.10;;;;;;5080260;28;20416;-47
2022/04/12 05:27:51;;;;;;;7.95;4.38;;;12.30;43.10;;;;;;5079277;28;20043;-42
2022/04/12 05:30:19;;;;;;;7.07;4.15;;;12.20;43.10;;;;;;5081285;28;20263;-44
2022/04/12 05:32:48;;;;;;;8.55;4.03;;;12.20;43.10;;;;;;5082011;28;20056;-43
2022/04/12 05:35:16;;;;;;;8.88;4.13;;;12.20;43.10;;;;;;5072300;28;20059;-42
2022/04/12 05:37:45;;;;;;;10.27;4.18;;;12.20;43.10;;;;;;5060899;28;20056;-42
2022/04/12 05:40:13;;;;;;;5.82;3.53;;;12.20;43.10;;;;;;5058831;28;20052;-43
2022/04/12 05:42:42;;;;;;;8.65;4.50;;;12.30;43.20;;;;;;5059201;28;20074;-44
2022/04/12 05:45:13;;;;;;;5.57;3.80;;;12.30;43.30;;;;;;5060757;28;20061;-42
2022/04/12 05:47:42;;;;;;;6.20;3.67;;;12.30;43.20;;;;;;5062125;28;20071;-41
2022/04/12 05:50:11;;;;;;;6.30;3.95;;;12.30;43.20;;;;;;5061992;28;20049;-42
2022/04/12 05:52:39;;;;;;;8.27;4.00;;;12.30;43.30;;;;;;5060827;28;20416;-41
2022/04/12 05:55:09;;;;;;;6.95;4.22;;;12.40;43.40;;;;;;5060531;28;20049;-42
2022/04/12 05:57:38;;;;;;;7.97;4.18;;;12.40;43.40;;;;;;5058811;28;20055;-42
2022/04/12 06:00:08;;;;;;;9.38;4.45;;;12.40;43.40;;;;;;5060990;28;20079;-44
2022/04/12 06:02:37;;;;;;;8.00;3.88;;;12.40;43.30;;;;;;5061559;28;20057;-42
2022/04/12 06:05:05;;;;;;;5.47;3.28;;;12.50;43.50;;;;;;5060726;28;20060;-42
2022/04/12 06:07:34;;;;;;;8.25;4.43;;;12.50;43.50;;;;;;5061817;28;20060;-42
2022/04/12 06:10:02;;;;;;;7.95;4.05;;;12.60;43.60;;;;;;5061073;28;20052;-42
2022/04/12 06:12:30;;;;;;;7.75;3.97;;;12.60;43.50;;;;;;5056294;28;20468;-42
2022/04/12 06:14:57;;;;;;;10.60;4.55;;;12.60;43.60;;;;;;5059119;28;20053;-42
2022/04/12 06:17:30;;;;;;;6.95;3.75;;;12.70;43.40;;;;;;5061864;28;20067;-42
2022/04/12 06:20:04;;;;;;;10.07;4.07;;;12.70;43.40;;;;;;5059142;28;20063;-42
2022/04/12 06:22:32;;;;;;;7.53;4.30;;;12.80;43.40;;;;;;5059472;28;20083;-46
2022/04/12 06:25:00;;;;;;;8.30;3.78;;;12.80;43.40;;;;;;5058015;28;20068;-42
2022/04/12 06:27:32;;;;;;;8.25;3.88;;;12.90;43.40;;;;;;5058366;28;20048;-42
2022/04/12 06:30:03;;;;;;;7.63;4.05;;;12.90;43.40;;;;;;5057491;28;20052;-43
2022/04/12 06:32:31;;;;;;;10.18;4.55;;;13.00;43.30;;;;;;5058282;28;20061;-42
2022/04/12 06:34:58;;;;;;;8.43;4.40;;;13.00;43.20;;;;;;5065421;28;20063;-42
2022/04/12 06:37:28;;;;;;;6.82;4.38;;;13.10;43.20;;;;;;5083438;28;20044;-42
2022/04/12 06:39:58;;;;;;;8.35;3.92;;;13.10;43.20;;;;;;5082479;28;20067;-43
2022/04/12 06:42:25;;;;;;;10.40;3.90;;;13.20;43.30;;;;;;5083311;28;20047;-42
2022/04/12 06:44:53;;;;;;;6.97;4.07;;;13.20;43.20;;;;;;5083153;28;20579;-41
2022/04/12 06:47:21;;;;;;;7.75;3.65;;;13.30;43.40;;;;;;5084163;28;20062;-42
2022/04/12 06:49:50;;;;;;;6.80;4.07;;;13.40;43.40;;;;;;5083721;28;20476;-42
2022/04/12 06:52:19;;;;;;;6.82;4.00;;;13.40;43.40;;;;;;5081191;28;20051;-44
2022/04/12 06:54:49;;;;;;;57.33;22.80;;;13.50;43.40;;;;;;5085071;28;20059;-41
2022/04/12 06:57:17;;;;;;;14.73;7.07;;;13.50;43.60;;;;;;5080512;28;20044;-42
2022/04/12 06:59:45;;;;;;;10.65;4.72;;;13.50;43.40;;;;;;5081019;28;20051;-43
2022/04/12 07:02:13;;;;;;;9.95;4.43;;;13.60;43.40;;;;;;5079649;28;20063;-44
2022/04/12 07:04:40;;;;;;;8.38;3.97;;;13.60;43.20;;;;;;5077829;28;20056;-44
2022/04/12 07:07:08;;;;;;;9.25;4.40;;;13.70;43.10;;;;;;5078166;28;20059;-42
2022/04/12 07:09:36;;;;;;;7.60;3.85;;;13.70;43.20;;;;;;5084288;28;20048;-42
2022/04/12 07:12:06;;;;;;;9.65;4.28;;;13.80;43.30;;;;;;5079814;28;20066;-42
2022/04/12 07:14:33;;;;;;;10.95;4.18;;;13.80;43.20;;;;;;5084380;28;20052;-42
2022/04/12 07:17:03;;;;;;;7.75;3.58;;;13.90;43.40;;;;;;5083250;28;20062;-42
2022/04/12 07:19:30;;;;;;;8.45;3.65;;;13.90;43.50;;;;;;5084412;28;20055;-42
2022/04/12 07:21:58;;;;;;;7.22;3.65;;;14.00;43.50;;;;;;5084378;28;20059;-42
2022/04/12 07:24:26;;;;;;;11.02;4.43;;;14.10;43.80;;;;;;5082079;28;20480;-43
2022/04/12 07:26:53;;;;;;;10.38;4.53;;;14.10;43.80;;;;;;5079019;28;20047;-43
2022/04/12 07:29:22;;;;;;;13.10;4.88;;;14.20;43.70;;;;;;5081092;28;20491;-42
2022/04/12 07:31:50;;;;;;;10.95;4.30;;;14.30;43.60;;;;;;5080497;28;20055;-42
2022/04/12 07:34:17;;;;;;;5.45;3.22;;;14.30;43.70;;;;;;5084863;28;20055;-42
2022/04/12 07:36:47;;;;;;;8.13;4.72;;;14.40;43.60;;;;;;5082760;28;20059;-42
2022/04/12 07:39:15;;;;;;;8.25;3.55;;;14.40;44.00;;;;;;5083344;28;20086;-43
2022/04/12 07:41:45;;;;;;;8.95;4.25;;;14.50;43.50;;;;;;5082124;28;20048;-43
2022/04/12 07:44:12;;;;;;;7.82;3.80;;;14.50;43.20;;;;;;5082980;28;20056;-43
2022/04/12 07:46:41;;;;;;;8.32;3.90;;;14.50;43.10;;;;;;5081573;28;20055;-42
2022/04/12 07:49:09;;;;;;;6.30;3.65;;;14.60;43.10;;;;;;5081562;28;20589;-42
2022/04/12 07:51:37;;;;;;;8.85;4.28;;;14.60;43.10;;;;;;5083819;28;20510;-45
2022/04/12 07:54:06;;;;;;;5.97;3.92;;;14.60;43.00;;;;;;5082913;28;20048;-43
2022/04/12 07:56:34;;;;;;;7.82;4.03;;;14.70;43.30;;;;;;5083171;28;20056;-42
2022/04/12 07:59:03;;;;;;;7.35;3.67;;;14.70;43.30;;;;;;5081509;28;20055;-42
2022/04/12 08:01:30;;;;;;;6.97;3.97;;;14.70;43.20;;;;;;5081557;28;20067;-42
2022/04/12 08:03:59;;;;;;;11.15;3.90;;;14.80;43.20;;;;;;5083400;28;20058;-42
2022/04/12 08:06:27;;;;;;;8.63;4.00;;;14.80;43.00;;;;;;5083911;28;20066;-43
2022/04/12 08:08:55;;;;;;;7.95;3.78;;;14.90;43.00;;;;;;5078305;28;21119;-42
2022/04/12 08:11:22;;;;;;;6.82;3.80;;;14.90;43.10;;;;;;5076701;28;20062;-42
2022/04/12 08:13:50;;;;;;;7.47;4.20;;;15.00;43.00;;;;;;5072950;28;20400;-42
2022/04/12 08:16:17;;;;;;;9.60;4.00;;;15.00;42.90;;;;;;5072208;28;20699;-45
2022/04/12 08:18:45;;;;;;;11.43;3.97;;;15.00;42.50;;;;;;5080925;28;20056;-44
2022/04/12 08:21:15;;;;;;;32.33;15.20;;;15.10;42.50;;;;;;5082044;28;20060;-44
2022/04/12 08:23:42;;;;;;;13.05;8.18;;;15.10;42.30;;;;;;5076493;28;20062;-43
2022/04/12 08:26:10;;;;;;;7.82;4.45;;;15.10;42.40;;;;;;5074395;28;20052;-43
2022/04/12 08:28:39;;;;;;;7.30;4.22;;;15.10;42.50;;;;;;5072016;28;20385;-43
2022/04/12 08:31:07;;;;;;;7.80;4.07;;;15.20;42.50;;;;;;5078321;28;20052;-43
2022/04/12 08:33:34;;;;;;;6.53;3.60;;;15.20;42.50;;;;;;5068447;28;20055;-42
2022/04/12 08:36:02;;;;;;;9.23;4.03;;;15.20;42.50;;;;;;5062973;28;20056;-43
2022/04/12 08:38:31;;;;;;;7.88;4.25;;;15.30;42.60;;;;;;5060702;28;20638;-43
2022/04/12 08:41:00;;;;;;;6.97;4.03;;;15.30;42.30;;;;;;5062926;28;20500;-43
2022/04/12 08:43:30;;;;;;;8.02;3.80;;;15.30;42.50;;;;;;5061671;28;20060;-42
2022/04/12 08:45:58;;;;;;;6.32;3.47;;;15.30;42.40;;;;;;5061948;28;20052;-42
2022/04/12 08:48:26;;;;;;;7.85;3.85;;;15.40;42.60;;;;;;5061077;28;20063;-42
2022/04/12 08:50:54;;;;;;;9.10;4.35;;;15.40;42.80;;;;;;5062525;28;20060;-42
2022/04/12 08:53:23;;;;;;;6.78;4.10;;;15.50;42.90;;;;;;5060892;28;20067;-43
2022/04/12 08:55:52;;;;;;;9.43;3.50;;;15.50;42.90;;;;;;5057394;28;20432;-43
2022/04/12 08:58:20;;;;;;;11.07;3.88;;;15.50;43.20;;;;;;5059803;28;20416;-43
2022/04/12 09:00:47;;;;;;;8.13;3.70;;;15.60;42.70;;;;;;5062413;28;20048;-43
2022/04/12 09:03:15;;;;;;;6.20;3.72;;;15.60;42.60;;;;;;5055349;28;20048;-42
2022/04/12 09:05:43;;;;;;;7.75;3.67;;;15.70;42.80;;;;;;5051746;28;20701;-43
2022/04/12 09:08:25;;;;;;;6.13;3.42;;;15.70;43.10;;;;;;5052334;28;20062;-42
2022/04/12 09:11:01;;;;;;;7.60;3.95;;;15.80;42.70;;;;;;5047408;28;20488;-42
2022/04/12 09:13:30;;;;;;;7.90;3.50;;;15.90;42.50;;;;;;5050339;28;20065;-42
2022/04/12 09:15:58;;;;;;;6.90;3.30;;;16.00;42.90;;;;;;5045433;28;20424;-45
2022/04/12 09:18:33;;;;;;;6.32;3.30;;;16.00;43.10;;;;;;5056712;28;20059;-41
2022/04/12 09:21:12;;;;;;;6.20;3.40;;;16.10;42.50;;;;;;5054723;28;20047;-42
2022/04/12 09:23:43;;;;;;;5.00;3.22;;;16.20;42.00;;;;;;5056870;28;20060;-44
2022/04/12 09:26:16;;;;;;;5.88;2.95;;;16.30;42.10;;;;;;5060919;28;20060;-45
2022/04/12 09:28:44;;;;;;;6.45;3.10;;;16.40;42.40;;;;;;5050174;28;20056;-44
2022/04/12 09:31:13;;;;;;;6.32;3.08;;;16.50;41.90;;;;;;5046025;28;20048;-47
2022/04/12 09:33:41;;;;;;;11.18;2.97;;;16.70;42.00;;;;;;5053683;28;20052;-45
2022/04/12 09:36:09;;;;;;;6.32;2.92;;;16.80;42.20;;;;;;5073199;28;20512;-44
2022/04/12 09:38:38;;;;;;;6.88;3.30;;;16.90;41.90;;;;;;5075697;28;20060;-44
2022/04/12 09:41:16;;;;;;;7.30;3.45;;;17.00;42.00;;;;;;5078732;28;20044;-44
2022/04/12 09:43:57;;;;;;;5.90;3.28;;;17.10;42.00;;;;;;5077612;28;20056;-46
2022/04/12 09:46:27;;;;;;;8.13;3.72;;;17.20;41.90;;;;;;5073191;28;20063;-44
2022/04/12 09:48:54;;;;;;;6.78;3.33;;;17.30;42.00;;;;;;5073954;28;20067;-44
2022/04/12 09:51:24;;;;;;;10.40;5.30;;;17.30;41.90;;;;;;5079846;28;20051;-44
2022/04/12 09:53:52;;;;;;;13.35;5.75;;;17.30;41.90;;;;;;5064570;28;20514;-45
2022/04/12 09:56:23;;;;;;;12.63;5.82;;;17.40;41.90;;;;;;5069391;28;20052;-44
2022/04/12 09:58:53;;;;;;;11.80;4.72;;;17.50;41.40;;;;;;5071053;28;20051;-43
2022/04/12 10:01:22;;;;;;;8.38;4.22;;;17.50;41.30;;;;;;5074040;28;20047;-42
2022/04/12 10:03:51;;;;;;;12.45;5.43;;;17.50;41.40;;;;;;5079741;28;20063;-42
2022/04/12 10:06:21;;;;;;;12.02;5.05;;;17.60;41.50;;;;;;5072550;28;20075;-43
2022/04/12 10:08:53;;;;;;;9.68;4.40;;;17.60;41.30;;;;;;5070182;28;20067;-45
2022/04/12 10:11:22;;;;;;;11.32;4.68;;;17.60;41.20;;;;;;5074000;28;20058;-42
2022/04/12 10:13:51;;;;;;;8.25;4.13;;;17.70;41.50;;;;;;5077779;28;20052;-42
2022/04/12 10:16:19;;;;;;;13.55;4.15;;;17.70;41.40;;;;;;5076203;28;20059;-43
2022/04/12 10:18:48;;;;;;;16.05;3.65;;;17.80;41.50;;;;;;5081775;28;20436;-42
2022/04/12 10:21:16;;;;;;;12.20;3.35;;;17.80;41.50;;;;;;5079744;28;20051;-44
2022/04/12 10:23:48;;;;;;;7.18;3.25;;;17.80;41.00;;;;;;5080630;28;20431;-43
2022/04/12 10:26:22;;;;;;;6.35;3.38;;;17.90;40.80;;;;;;5081412;28;20063;-42
2022/04/12 10:28:52;;;;;;;4.75;2.63;;;17.90;40.90;;;;;;5080750;28;20052;-43
2022/04/12 10:31:25;;;;;;;5.97;2.55;;;18.00;41.00;;;;;;5078854;28;20476;-42
2022/04/12 10:34:03;;;;;;;6.38;2.88;;;18.10;41.10;;;;;;5063788;28;20496;-43
2022/04/12 10:36:59;;;;;;;4.63;2.80;;;18.10;40.80;;;;;;5064280;28;21352;-42
2022/04/12 10:39:33;;;;;;;8.18;2.90;;;18.20;40.80;;;;;;5064524;28;20048;-42
2022/04/12 10:42:07;;;;;;;4.45;2.40;;;18.30;40.50;;;;;;5066433;28;20909;-43
2022/04/12 10:44:43;;;;;;;5.40;2.40;;;18.30;40.50;;;;;;5067541;28;20048;-44
2022/04/12 10:47:27;;;;;;;5.07;1.58;;;18.40;40.70;;;;;;5070778;28;20063;-42
2022/04/12 10:50:00;;;;;;;2.80;1.80;;;18.50;40.60;;;;;;5065203;28;20730;-44
2022/04/12 10:52:36;;;;;;;3.30;1.40;;;18.50;38.60;;;;;;5066813;28;20044;-42
2022/04/12 10:55:05;;;;;;;5.97;1.60;;;18.60;37.30;;;;;;5072575;28;20052;-42
2022/04/12 10:57:35;;;;;;;3.78;1.63;;;18.70;37.20;;;;;;5063295;28;20078;-44
2022/04/12 11:00:11;;;;;;;2.95;1.70;;;18.80;36.60;;;;;;5074047;28;20059;-42
2022/04/12 11:02:41;;;;;;;4.10;1.83;;;18.90;36.30;;;;;;5076538;28;20052;-42
2022/04/12 11:05:34;;;;;;;4.30;1.25;;;19.00;36.50;;;;;;5079438;28;20415;-42
2022/04/12 11:08:05;;;;;;;5.93;1.95;;;19.10;35.90;;;;;;5077491;28;20342;-44
2022/04/12 11:10:33;;;;;;;4.55;1.60;;;19.20;36.20;;;;;;5076172;28;20052;-42
2022/04/12 11:13:10;;;;;;;4.38;1.27;;;19.30;36.30;;;;;;5076210;28;20048;-44
2022/04/12 11:15:39;;;;;;;5.38;1.58;;;19.40;35.40;;;;;;5078096;28;20047;-42
2022/04/12 11:18:08;;;;;;;3.42;1.35;;;19.50;35.40;;;;;;5079940;28;20067;-42
2022/04/12 11:20:36;;;;;;;5.05;1.30;;;19.60;35.60;;;;;;5073804;28;20606;-42
2022/04/12 11:23:08;;;;;;;2.10;1.40;;;19.80;35.50;;;;;;5074960;28;20048;-44
2022/04/12 11:25:45;;;;;;;6.00;1.50;;;19.90;35.00;;;;;;5074249;28;20064;-42
2022/04/12 11:28:15;;;;;;;2.38;1.40;;;19.90;35.40;;;;;;5081555;28;20058;-42
2022/04/12 11:30:53;;;;;;;3.88;1.25;;;20.00;35.80;;;;;;5075701;28;20047;-42
2022/04/12 11:33:24;;;;;;;3.72;1.77;;;20.10;35.60;;;;;;5077291;28;20106;-42
2022/04/12 11:35:52;;;;;;;3.13;1.23;;;20.20;35.30;;;;;;5070391;28;20059;-42
2022/04/12 11:38:22;;;;;;;3.00;1.10;;;20.30;35.70;;;;;;5073713;28;20059;-43
2022/04/12 11:40:50;;;;;;;4.00;1.23;;;20.40;35.70;;;;;;5077778;28;20051;-42
2022/04/12 11:46:41;;;;;;;4.85;1.20;;;20.60;35.30;;;;;;5088245;28;20039;-42
2022/04/12 11:49:10;;;;;;;4.32;1.10;;;20.70;35.50;;;;;;5072856;28;20055;-42
2022/04/12 11:51:40;;;;;;;4.10;1.08;;;20.80;35.50;;;;;;5074956;28;20048;-43
2022/04/12 11:54:22;;;;;;;2.30;1.00;;;20.90;35.70;;;;;;5082079;28;20067;-41
2022/04/12 11:57:01;;;;;;;2.85;1.17;;;21.00;35.40;;;;;;5071642;28;20063;-42
2022/04/12 11:59:29;;;;;;;3.13;1.10;;;21.10;34.50;;;;;;5078107;28;20048;-42
2022/04/12 12:01:59;;;;;;;1.85;0.90;;;21.10;34.30;;;;;;5072596;28;20052;-43
2022/04/12 12:04:29;;;;;;;3.60;1.25;;;21.20;34.20;;;;;;5074439;28;20055;-44
2022/04/12 12:06:58;;;;;;;3.60;1.05;;;21.30;34.50;;;;;;5079042;28;20048;-42
2022/04/12 12:09:26;;;;;;;2.58;1.00;;;21.40;34.40;;;;;;5068485;28;20420;-42
2022/04/12 12:11:57;;;;;;;2.80;1.17;;;21.40;34.00;;;;;;5068414;28;20435;-42
2022/04/12 12:14:25;;;;;;;3.38;1.10;;;21.30;33.30;;;;;;5074555;28;20210;-43
2022/04/12 12:17:06;;;;;;;4.97;1.02;;;21.40;33.50;;;;;;5072516;28;20135;-43
2022/04/12 12:19:38;;;;;;;2.80;1.10;;;21.40;33.50;;;;;;5072237;28;20060;-42
2022/04/12 12:22:07;;;;;;;2.47;1.10;;;21.50;33.50;;;;;;5078696;28;20063;-42
2022/04/12 12:24:37;;;;;;;10.35;1.75;;;21.50;33.30;;;;;;5080789;28;20075;-43
2022/04/12 12:27:06;;;;;;;2.05;1.00;;;21.60;33.10;;;;;;5081353;28;20062;-46
2022/04/12 12:29:38;;;;;;;3.90;1.08;;;21.70;32.90;;;;;;5078043;28;20044;-42
2022/04/12 12:32:08;;;;;;;2.05;1.00;;;21.70;32.60;;;;;;5070015;28;20051;-42
2022/04/12 12:34:37;;;;;;;1.95;0.85;;;21.80;33.00;;;;;;5070297;28;20052;-42
2022/04/12 12:37:09;;;;;;;4.05;1.23;;;21.90;33.50;;;;;;5064125;28;20056;-42
2022/04/12 12:39:40;;;;;;;2.72;0.93;;;21.90;33.60;;;;;;5056017;28;20385;-43
2022/04/12 12:42:08;;;;;;;3.38;1.10;;;22.00;33.50;;;;;;5054331;28;20052;-42
2022/04/12 12:44:36;;;;;;;2.35;0.82;;;22.10;33.40;;;;;;5059831;28;21211;-42
2022/04/12 12:47:06;;;;;;;2.42;1.00;;;22.10;33.10;;;;;;5061811;28;20053;-42
2022/04/12 12:49:39;;;;;;;4.47;1.13;;;22.20;32.40;;;;;;5059933;28;20059;-42
2022/04/12 12:52:08;;;;;;;5.28;1.35;;;22.30;32.80;;;;;;5059213;28;20056;-42
2022/04/12 12:54:36;;;;;;;4.35;1.23;;;22.40;32.30;;;;;;5062299;28;20064;-44
2022/04/12 12:57:06;;;;;;;2.50;1.00;;;22.40;32.20;;;;;;5061710;28;20040;-42
2022/04/12 12:59:35;;;;;;;2.88;1.25;;;22.50;31.80;;;;;;5058050;28;20048;-42